Terminal Aerodrome Forecast
Issued by NWS

Home | Current Version | Previous Version | Text Only | Print | Product List | Glossary Off
Versions: 1 2 3 4 5 6 7 8 9 10 11 12 13 14 15 16 17 18 19

831
FTUS43 KICT 231121
TAFCNU
TAF
KCNU 231121Z 2312/2412 16006KT P6SM SKC
     FM232000 18014G20KT P6SM SCT150
     FM240000 14012KT P6SM SCT150
     FM240900 14010KT P6SM BKN080=

USA.gov is the U.S. government's official web portal to all federal, state and local government web resources and services.